createdAt,value
2023-02-02T00:01:34.930Z,28.08
2023-02-02T00:06:37.190Z,25.05
2023-02-02T00:11:39.561Z,14.25
2023-02-02T00:16:49.485Z,13.35
2023-02-02T00:21:51.660Z,15.13
2023-02-02T00:26:58.196Z,22.42
2023-02-02T00:32:00.354Z,18.08
2023-02-02T00:37:02.688Z,10.07
2023-02-02T00:42:05.033Z,11.23
2023-02-02T00:47:07.243Z,12.00
2023-02-02T00:52:09.519Z,16.42
2023-02-02T00:57:15.515Z,15.27
2023-02-02T01:02:17.659Z,13.73
2023-02-02T01:07:19.813Z,12.43
2023-02-02T01:12:22.064Z,15.63
2023-02-02T01:17:24.304Z,12.18
2023-02-02T01:22:26.621Z,14.90
2023-02-02T01:27:28.789Z,16.98
2023-02-02T01:32:30.951Z,20.27
2023-02-02T01:37:33.165Z,15.10
2023-02-02T01:42:35.297Z,13.30
2023-02-02T01:47:44.029Z,13.25
2023-02-02T01:52:49.898Z,23.00
2023-02-02T01:58:07.184Z,9.60
2023-02-02T02:03:14.414Z,9.82
2023-02-02T02:08:22.273Z,13.90
2023-02-02T02:13:46.626Z,14.38
2023-02-02T02:18:48.704Z,14.23
2023-02-02T02:24:33.811Z,14.35
2023-02-02T02:30:24.460Z,17.20
2023-02-02T02:35:35.443Z,15.50
2023-02-02T02:40:40.529Z,10.77
2023-02-02T02:45:44.970Z,8.68
2023-02-02T02:50:47.060Z,14.68
2023-02-02T02:56:05.211Z,8.48
2023-02-02T03:01:16.229Z,6.57
2023-02-02T03:06:21.352Z,6.90
2023-02-02T03:11:23.556Z,6.60
2023-02-02T03:16:25.749Z,5.53
2023-02-02T03:21:27.909Z,5.25
2023-02-02T03:26:30.191Z,12.23
2023-02-02T03:31:32.439Z,3.75
2023-02-02T03:36:34.635Z,4.70
2023-02-02T03:41:36.813Z,6.22
2023-02-02T03:46:38.981Z,6.80
2023-02-02T03:51:41.185Z,5.07
2023-02-02T03:56:43.361Z,7.45
2023-02-02T04:01:45.478Z,9.80
2023-02-02T04:06:47.643Z,9.68
2023-02-02T04:11:49.812Z,5.97
2023-02-02T04:16:52.126Z,9.88
2023-02-02T04:21:54.638Z,9.85
2023-02-02T04:26:56.728Z,17.65
2023-02-02T04:31:58.859Z,10.95
2023-02-02T04:37:01.362Z,20.73
2023-02-02T04:42:03.988Z,13.77
2023-02-02T04:47:06.138Z,15.10
2023-02-02T04:52:08.458Z,25.92
2023-02-02T04:57:10.615Z,15.52
2023-02-02T05:02:12.721Z,23.55
2023-02-02T05:07:14.840Z,29.48
2023-02-02T05:12:16.985Z,36.90
2023-02-02T05:17:19.281Z,35.08
2023-02-02T05:22:21.456Z,24.40
2023-02-02T05:27:23.589Z,16.92
2023-02-02T05:32:26.069Z,28.58
2023-02-02T05:37:28.206Z,35.75
2023-02-02T05:42:30.374Z,37.45
2023-02-02T05:47:32.567Z,35.80
2023-02-02T05:52:36.128Z,31.55
2023-02-02T05:57:38.289Z,39.72
2023-02-02T06:02:40.546Z,29.90
2023-02-02T06:07:42.657Z,45.70
2023-02-02T06:12:44.866Z,50.47
2023-02-02T06:17:47.046Z,33.55
2023-02-02T06:22:49.207Z,34.72
2023-02-02T06:27:55.289Z,21.92
2023-02-02T06:32:59.810Z,24.77
2023-02-02T06:38:02.150Z,24.50
2023-02-02T06:43:04.741Z,37.05
2023-02-02T06:48:11.153Z,28.77
2023-02-02T06:53:13.205Z,23.30
2023-02-02T06:58:15.327Z,20.15
2023-02-02T07:03:18.159Z,35.65
2023-02-02T07:08:20.663Z,20.45
2023-02-02T07:13:22.825Z,19.50
2023-02-02T07:18:25.054Z,19.75
2023-02-02T07:23:30.308Z,23.13
2023-02-02T07:28:32.695Z,27.60
2023-02-02T07:33:39.012Z,23.30
2023-02-02T07:38:41.215Z,19.35
2023-02-02T07:43:43.802Z,25.55
2023-02-02T07:48:46.209Z,27.15
2023-02-02T07:53:50.803Z,17.90
2023-02-02T07:58:55.151Z,15.73
2023-02-02T08:04:00.767Z,16.77
2023-02-02T08:09:08.125Z,25.55
2023-02-02T08:14:14.467Z,33.17
2023-02-02T08:19:17.502Z,24.08
2023-02-02T08:24:19.656Z,21.58
2023-02-02T08:29:21.801Z,24.27
2023-02-02T08:34:23.964Z,10.45
2023-02-02T08:39:26.217Z,11.55
2023-02-02T08:44:28.498Z,9.98
2023-02-02T08:49:50.562Z,17.33
2023-02-02T08:54:52.711Z,14.93
2023-02-02T08:59:54.922Z,9.50
2023-02-02T09:04:57.105Z,8.68
2023-02-02T09:09:59.194Z,10.50
2023-02-02T09:15:01.407Z,11.95
2023-02-02T09:20:03.875Z,11.23
2023-02-02T09:25:06.431Z,18.67
2023-02-02T09:30:09.740Z,17.58
2023-02-02T09:35:11.955Z,19.60
2023-02-02T09:40:19.477Z,14.63
2023-02-02T09:45:39.656Z,16.02
2023-02-02T09:50:53.901Z,10.60
2023-02-02T09:56:01.476Z,7.57
2023-02-02T10:01:27.260Z,18.60
2023-02-02T10:06:35.483Z,11.38
2023-02-02T10:12:19.326Z,12.68
2023-02-02T10:17:21.341Z,8.85
2023-02-02T10:22:28.464Z,8.75
2023-02-02T10:27:41.267Z,5.43
2023-02-02T10:33:10.614Z,6.22
2023-02-02T10:38:36.728Z,5.53
2023-02-02T10:44:07.985Z,4.07
2023-02-02T10:49:22.420Z,5.85
2023-02-02T10:54:56.521Z,4.43
2023-02-02T11:00:06.328Z,4.47
2023-02-02T11:05:35.895Z,5.45
2023-02-02T11:10:38.240Z,4.00
2023-02-02T11:15:40.377Z,3.47
2023-02-02T11:20:42.874Z,3.95
2023-02-02T11:25:45.369Z,4.63
2023-02-02T11:30:52.903Z,3.30
2023-02-02T11:35:58.706Z,4.68
2023-02-02T11:41:11.461Z,3.60
2023-02-02T11:46:24.881Z,5.03
2023-02-02T11:51:29.864Z,3.05
2023-02-02T11:56:33.144Z,4.93
2023-02-02T12:01:41.665Z,4.65
2023-02-02T12:06:44.540Z,3.50
2023-02-02T12:12:08.561Z,4.40
2023-02-02T12:17:28.178Z,4.38
2023-02-02T12:22:33.100Z,3.78
2023-02-02T12:27:52.258Z,3.25
2023-02-02T12:33:36.133Z,3.00
2023-02-02T12:39:09.116Z,2.97
2023-02-02T12:44:14.142Z,7.28
2023-02-02T12:50:03.272Z,2.45
2023-02-02T12:55:31.612Z,3.95
2023-02-02T13:00:48.812Z,4.32
2023-02-02T13:06:36.821Z,3.95
2023-02-02T13:11:46.147Z,5.90
2023-02-02T13:16:53.722Z,5.03
2023-02-02T13:22:00.724Z,4.45
2023-02-02T13:27:06.517Z,3.20
2023-02-02T13:32:21.420Z,5.53
2023-02-02T13:37:33.363Z,3.75
2023-02-02T13:43:13.160Z,4.68
2023-02-02T13:48:31.831Z,6.43
2023-02-02T13:53:40.116Z,5.38
2023-02-02T13:59:12.743Z,3.50
2023-02-02T14:04:25.827Z,6.20
2023-02-02T14:09:36.473Z,7.88
2023-02-02T14:14:46.421Z,3.50
2023-02-02T14:19:54.639Z,3.50
2023-02-02T14:24:57.513Z,4.18
2023-02-02T14:30:00.760Z,5.65
2023-02-02T14:35:11.589Z,7.05
2023-02-02T14:40:16.723Z,8.23
2023-02-02T14:45:36.948Z,20.00
2023-02-02T14:56:03.414Z,10.60
2023-02-02T15:01:26.203Z,6.22
2023-02-02T15:06:40.896Z,6.90
2023-02-02T15:12:07.065Z,3.13
2023-02-02T15:17:25.325Z,2.88
2023-02-02T15:22:37.488Z,7.28
2023-02-02T15:27:48.103Z,9.30
2023-02-02T15:32:57.806Z,5.30
2023-02-02T15:38:05.038Z,7.78
2023-02-02T15:43:11.473Z,11.25
2023-02-02T15:48:30.715Z,4.25
2023-02-02T15:53:46.267Z,9.02
2023-02-02T15:58:51.145Z,7.38
2023-02-02T16:04:08.635Z,6.20
2023-02-02T16:09:22.911Z,4.75
2023-02-02T16:14:25.212Z,8.38
2023-02-02T16:19:27.448Z,4.78
2023-02-02T16:24:33.406Z,6.78
2023-02-02T16:29:36.121Z,3.70
2023-02-02T16:34:41.212Z,12.70
2023-02-02T16:39:43.548Z,15.10
2023-02-02T16:44:45.607Z,13.10
2023-02-02T16:49:47.806Z,12.20
2023-02-02T16:54:55.972Z,13.75
2023-02-02T17:00:02.272Z,11.80
2023-02-02T17:05:23.561Z,8.13
2023-02-02T17:10:32.444Z,12.40
2023-02-02T17:15:37.018Z,13.95
2023-02-02T17:20:41.050Z,10.00
2023-02-02T17:25:44.186Z,12.98
2023-02-02T17:30:50.262Z,12.98
2023-02-02T17:35:56.306Z,14.05
2023-02-02T17:41:03.731Z,14.10
2023-02-02T17:46:06.278Z,16.70
2023-02-02T17:51:15.607Z,20.90
2023-02-02T17:56:18.668Z,9.17
2023-02-02T18:01:20.885Z,10.52
2023-02-02T18:06:22.989Z,6.35
2023-02-02T18:11:25.276Z,10.43
2023-02-02T18:16:27.438Z,9.70
2023-02-02T18:21:30.298Z,11.05
2023-02-02T18:26:34.852Z,8.40
2023-02-02T18:31:37.238Z,14.60
2023-02-02T18:36:40.724Z,19.88
2023-02-02T18:41:42.832Z,26.48
2023-02-02T18:46:45.034Z,25.30
2023-02-02T18:51:48.223Z,25.00
2023-02-02T18:56:50.603Z,49.70
2023-02-02T19:01:52.675Z,50.28
2023-02-02T19:07:13.481Z,68.80
2023-02-02T19:12:16.075Z,55.70
2023-02-02T19:17:22.607Z,40.92
2023-02-02T19:22:30.693Z,42.60
2023-02-02T19:27:32.806Z,18.23
2023-02-02T19:32:35.378Z,12.38
2023-02-02T19:37:40.266Z,7.25
2023-02-02T19:42:50.372Z,14.95
2023-02-02T19:47:56.156Z,20.00
2023-02-02T19:52:58.295Z,15.35
2023-02-02T19:58:18.216Z,26.63
2023-02-02T20:03:43.270Z,34.77
2023-02-02T20:08:45.509Z,63.38
2023-02-02T20:13:49.021Z,45.97
2023-02-02T20:18:54.477Z,21.58
2023-02-02T20:23:56.672Z,16.13
2023-02-02T20:29:01.214Z,14.48
2023-02-02T20:34:20.715Z,13.45
2023-02-02T20:39:37.289Z,8.95
2023-02-02T20:44:39.452Z,5.57
2023-02-02T20:49:41.739Z,3.33
2023-02-02T20:54:43.816Z,6.15
2023-02-02T20:59:45.989Z,7.60
2023-02-02T21:04:48.579Z,9.55
2023-02-02T21:09:51.718Z,10.77
2023-02-02T21:14:54.710Z,5.28
2023-02-02T21:19:56.947Z,7.00
2023-02-02T21:24:59.124Z,7.88
2023-02-02T21:30:01.242Z,8.43
2023-02-02T21:35:04.995Z,8.40
2023-02-02T21:40:28.101Z,12.68
2023-02-02T21:45:36.196Z,9.35
2023-02-02T21:50:41.965Z,7.55
2023-02-02T21:55:52.647Z,6.50
2023-02-02T22:01:00.511Z,5.68
2023-02-02T22:06:29.397Z,10.48
2023-02-02T22:11:44.648Z,7.72
2023-02-02T22:16:50.570Z,11.93
2023-02-02T22:21:54.479Z,9.73
2023-02-02T22:26:59.243Z,8.05
2023-02-02T22:32:02.117Z,6.45
2023-02-02T22:37:04.249Z,4.32
2023-02-02T22:42:06.400Z,3.05
2023-02-02T22:47:08.464Z,4.25
2023-02-02T22:52:10.639Z,2.70
2023-02-02T22:57:12.893Z,4.57
2023-02-02T23:02:15.031Z,4.30
2023-02-02T23:07:17.247Z,5.70
2023-02-02T23:12:19.345Z,6.63
2023-02-02T23:17:21.461Z,5.07
2023-02-02T23:22:23.605Z,5.35
2023-02-02T23:27:26.341Z,5.13
2023-02-02T23:32:28.516Z,4.45
2023-02-02T23:37:30.865Z,7.28
2023-02-02T23:42:33.960Z,8.55
2023-02-02T23:47:36.475Z,6.13
2023-02-02T23:52:39.634Z,5.95
2023-02-02T23:57:41.789Z,4.57
